Airfield :
LOGIN :

Register | Disclaimer

   EN    FR    IT 

 










Legend :    VFR   Marginal VFR   IFR   Intensive IFR   Very Intensive IFR
Visi :
Ceiling :
>= 8 km
>= 3000ft
5 to 8 km
1000 to 3000 ft
1500m to 5 km
500 to 1000 ft
800 to 1500m
200 to 500 ft
< 800m
< 200 ft
Symbols :   Thunderstorms  Fog  Heavy snow  Heavy precipitations  Wind > 20 kt
SIGMETs :     Misc.  Thunderstorms  Icing  Turbulence  Mountain Waves  Volcanic Ashes







- Airport Elevation : 270 ft
- IATA code : OXF
- Download approach charts


EGTK - Oxford (Kidlington)

CURRENT METAR :
  • 281620Z 21013KT 9999 SCT018 BKN022 17/14 Q1006

EXPIRED METARs :
  • 281520Z 22013KT 9999 FEW020 OVC024 17/13 Q1007
  • 281450Z 22014KT 9999 BKN021 OVC027 18/13 Q1007
  • 281420Z 21018KT 9999 SCT020 BKN024 18/13 Q1007
  • 281350Z 22018G28KT 9999 SCT028 BKN038 19/13 Q1007

TAF TAF EGTK
Valid from the 28 at 09:00 until the 28 at 18:00 UTC


280755Z 2809/2818 22013KT 9999 SCT030
TEMPO 2809/2818 22016G26KT
PROB30
TEMPO 2811/2818 8000 -RA
No reported NOTAMs for that airfield.



MET'MAP, your aeronautical weather chart ! - Copyright ORBIFLY December 2007 - Disclaimer

ORBIFLY MET'MAP TEAM :

Programming & Development : Alexandra Zaïnal
Concept & Development : Baudouin d'Aumeries
Co-Development & Prog : Marc-Olivier Méhu
Technical & hardware support : Manuel Goepfert

Contact : metmap@orbifly.com




SOURCES & CREDITS :

   NOAA